createdAt,value
2017-08-04T00:00:13.261Z,25.09
2017-08-04T00:02:41.992Z,25.01
2017-08-04T00:05:10.636Z,24.98
2017-08-04T00:07:38.252Z,25.02
2017-08-04T00:10:05.883Z,25.07
2017-08-04T00:12:33.531Z,25.11
2017-08-04T00:15:01.154Z,25.04
2017-08-04T00:17:29.405Z,24.94
2017-08-04T00:19:59.503Z,24.92
2017-08-04T00:22:28.292Z,25.00
2017-08-04T00:24:58.130Z,25.05
2017-08-04T00:27:25.924Z,25.03
2017-08-04T00:29:53.580Z,24.86
2017-08-04T00:32:21.246Z,24.88
2017-08-04T00:34:48.857Z,24.86
2017-08-04T00:37:17.253Z,24.74
2017-08-04T00:39:46.768Z,24.76
2017-08-04T00:42:14.414Z,24.74
2017-08-04T00:44:42.941Z,24.55
2017-08-04T00:47:12.135Z,24.61
2017-08-04T00:49:39.780Z,24.64
2017-08-04T00:52:07.454Z,24.60
2017-08-04T00:54:36.237Z,24.44
2017-08-04T00:57:04.291Z,24.40
2017-08-04T00:59:34.376Z,24.41
2017-08-04T01:02:04.380Z,24.30
2017-08-04T01:04:32.037Z,24.26
2017-08-04T01:06:59.640Z,24.17
2017-08-04T01:09:28.675Z,24.10
2017-08-04T01:11:58.020Z,24.27
2017-08-04T01:14:25.602Z,24.11
2017-08-04T01:16:53.229Z,24.22
2017-08-04T01:19:21.295Z,24.13
2017-08-04T01:21:48.910Z,24.02
2017-08-04T01:24:17.350Z,24.04
2017-08-04T01:26:46.784Z,23.93
2017-08-04T01:29:14.425Z,23.91
2017-08-04T01:31:42.256Z,23.92
2017-08-04T01:34:09.841Z,23.80
2017-08-04T01:36:38.442Z,23.68
2017-08-04T01:39:06.889Z,23.64
2017-08-04T01:41:34.465Z,23.67
2017-08-04T01:44:02.066Z,23.70
2017-08-04T01:46:31.133Z,23.55
2017-08-04T01:48:59.399Z,23.55
2017-08-04T01:51:28.255Z,23.65
2017-08-04T01:53:57.574Z,23.64
2017-08-04T01:56:25.371Z,23.48
2017-08-04T01:58:53.462Z,23.55
2017-08-04T02:01:21.871Z,23.42
2017-08-04T02:03:50.285Z,23.43
2017-08-04T02:06:20.111Z,23.37
2017-08-04T02:08:49.595Z,23.40
2017-08-04T02:11:18.161Z,23.36
2017-08-04T02:13:45.799Z,23.60
2017-08-04T02:16:14.189Z,23.45
2017-08-04T02:18:41.816Z,23.33
2017-08-04T02:21:09.766Z,23.29
2017-08-04T02:23:37.384Z,23.38
2017-08-04T02:26:06.387Z,23.38
2017-08-04T02:28:35.070Z,23.44
2017-08-04T02:31:03.643Z,23.36
2017-08-04T02:33:32.264Z,23.33
2017-08-04T02:35:59.883Z,23.36
2017-08-04T02:38:27.599Z,23.47
2017-08-04T02:40:56.039Z,23.50
2017-08-04T02:43:24.608Z,23.34
2017-08-04T02:45:53.196Z,23.24
2017-08-04T02:48:21.808Z,23.24
2017-08-04T02:50:49.451Z,23.29
2017-08-04T02:53:17.598Z,23.37
2017-08-04T02:55:45.622Z,23.48
2017-08-04T02:58:14.013Z,23.20
2017-08-04T03:00:43.031Z,23.06
2017-08-04T03:03:11.924Z,23.26
2017-08-04T03:05:41.092Z,23.25
2017-08-04T03:08:09.424Z,23.19
2017-08-04T03:10:36.974Z,23.06
2017-08-04T03:13:05.417Z,23.03
2017-08-04T03:15:34.459Z,23.08
2017-08-04T03:18:02.069Z,23.03
2017-08-04T03:20:29.674Z,22.90
2017-08-04T03:22:57.299Z,23.03
2017-08-04T03:25:24.951Z,23.00
2017-08-04T03:27:52.525Z,22.96
2017-08-04T03:30:20.172Z,23.08
2017-08-04T03:32:47.798Z,23.05
2017-08-04T03:35:16.932Z,22.98
2017-08-04T03:37:45.447Z,22.82
2017-08-04T03:40:13.222Z,22.99
2017-08-04T03:42:40.840Z,22.69
2017-08-04T03:45:08.462Z,22.74
2017-08-04T03:47:36.746Z,22.87
2017-08-04T03:50:05.150Z,23.03
2017-08-04T03:52:33.647Z,22.98
2017-08-04T03:55:02.087Z,23.10
2017-08-04T03:57:30.541Z,23.23
2017-08-04T03:59:58.181Z,23.13
2017-08-04T04:02:25.817Z,23.27
2017-08-04T04:04:53.457Z,23.20
2017-08-04T04:07:21.173Z,23.10
2017-08-04T04:09:48.907Z,23.08
2017-08-04T04:12:16.510Z,23.01
2017-08-04T04:14:44.623Z,23.05
2017-08-04T04:17:12.239Z,23.10
2017-08-04T04:19:39.831Z,22.95
2017-08-04T04:22:07.946Z,22.94
2017-08-04T04:24:36.291Z,23.03
2017-08-04T04:27:05.190Z,23.10
2017-08-04T04:29:33.506Z,23.31
2017-08-04T04:32:02.428Z,23.37
2017-08-04T04:34:30.411Z,23.48
2017-08-04T04:36:58.049Z,23.63
2017-08-04T04:39:26.556Z,23.74
2017-08-04T04:41:56.298Z,23.80
2017-08-04T04:44:24.032Z,23.83
2017-08-04T04:46:51.718Z,24.00
2017-08-04T04:49:19.344Z,24.16
2017-08-04T04:51:46.914Z,24.16
2017-08-04T04:54:14.579Z,24.18
2017-08-04T04:56:42.249Z,24.18
2017-08-04T05:01:41.676Z,24.25
2017-08-04T05:07:31.089Z,24.25
2017-08-04T05:09:58.804Z,24.08
2017-08-04T05:12:26.457Z,24.34
2017-08-04T05:14:54.189Z,24.62
2017-08-04T05:17:21.896Z,24.30
2017-08-04T05:19:49.639Z,24.57
2017-08-04T05:22:17.360Z,24.85
2017-08-04T05:24:45.131Z,25.12
2017-08-04T05:27:12.799Z,25.51
2017-08-04T05:29:40.451Z,25.67
2017-08-04T05:32:08.766Z,26.17
2017-08-04T05:34:36.443Z,26.48
2017-08-04T05:37:04.139Z,26.81
2017-08-04T05:39:31.872Z,26.57
2017-08-04T05:41:59.512Z,26.75
2017-08-04T05:44:27.193Z,26.57
2017-08-04T05:46:54.988Z,26.92
2017-08-04T05:49:22.659Z,26.92
2017-08-04T05:51:50.421Z,27.29
2017-08-04T05:54:18.415Z,27.27
2017-08-04T05:56:46.276Z,27.59
2017-08-04T05:59:13.987Z,27.84
2017-08-04T06:01:41.692Z,28.26
2017-08-04T06:04:09.384Z,28.52
2017-08-04T06:06:37.180Z,28.58
2017-08-04T06:09:04.917Z,28.83
2017-08-04T06:11:33.315Z,28.87
2017-08-04T06:14:01.045Z,29.24
2017-08-04T06:16:28.809Z,29.13
2017-08-04T06:18:56.488Z,29.53
2017-08-04T06:21:24.139Z,29.38
2017-08-04T06:23:51.816Z,28.42
2017-08-04T06:26:19.442Z,28.75
2017-08-04T06:28:47.183Z,28.54
2017-08-04T06:31:14.952Z,28.93
2017-08-04T06:33:42.629Z,29.19
2017-08-04T06:36:10.502Z,28.83
2017-08-04T06:38:38.229Z,29.58
2017-08-04T06:41:05.915Z,29.77
2017-08-04T06:43:33.647Z,30.17
2017-08-04T06:46:01.349Z,30.57
2017-08-04T06:52:01.727Z,30.66
2017-08-04T06:54:41.046Z,30.72
2017-08-04T06:57:09.549Z,31.16
2017-08-04T06:59:37.179Z,30.68
2017-08-04T07:02:04.919Z,30.39
2017-08-04T07:04:33.513Z,30.31
2017-08-04T07:07:01.217Z,29.96
2017-08-04T07:09:28.931Z,30.61
2017-08-04T07:11:56.646Z,31.35
2017-08-04T07:14:25.044Z,31.26
2017-08-04T07:16:52.784Z,31.87
2017-08-04T07:19:20.509Z,32.31
2017-08-04T07:21:48.181Z,32.25
2017-08-04T07:24:15.877Z,32.56
2017-08-04T07:26:43.645Z,32.82
2017-08-04T07:29:11.321Z,32.57
2017-08-04T07:31:39.169Z,32.88
2017-08-04T07:34:06.888Z,32.77
2017-08-04T07:36:34.581Z,33.15
2017-08-04T07:39:02.319Z,33.91
2017-08-04T07:41:30.023Z,34.12
2017-08-04T07:43:57.724Z,34.16
2017-08-04T07:46:25.394Z,34.24
2017-08-04T07:48:53.158Z,34.38
2017-08-04T07:51:24.782Z,34.88
2017-08-04T07:53:52.564Z,34.63
2017-08-04T07:56:20.224Z,34.73
2017-08-04T07:58:48.065Z,34.75
2017-08-04T08:01:15.782Z,34.94
2017-08-04T08:03:43.471Z,35.02
2017-08-04T08:06:11.153Z,35.40
2017-08-04T08:08:38.843Z,35.35
2017-08-04T08:11:06.496Z,35.86
2017-08-04T08:13:34.163Z,35.98
2017-08-04T08:16:02.622Z,36.21
2017-08-04T08:18:30.360Z,36.55
2017-08-04T08:20:58.018Z,35.74
2017-08-04T08:23:25.670Z,35.68
2017-08-04T08:25:53.316Z,36.02
2017-08-04T08:28:20.975Z,36.33
2017-08-04T08:30:50.443Z,36.05
2017-08-04T08:33:18.180Z,36.04
2017-08-04T08:35:45.863Z,35.98
2017-08-04T08:38:13.565Z,36.09
2017-08-04T08:40:41.230Z,35.71
2017-08-04T08:43:09.875Z,35.86
2017-08-04T08:45:40.769Z,35.69
2017-08-04T08:48:09.370Z,35.17
2017-08-04T08:50:37.027Z,34.89
2017-08-04T08:53:04.740Z,35.33
2017-08-04T08:55:32.387Z,35.29
2017-08-04T08:58:00.097Z,35.69
2017-08-04T09:00:27.797Z,36.33
2017-08-04T09:02:55.708Z,36.28
2017-08-04T09:05:23.368Z,36.39
2017-08-04T09:07:51.045Z,36.42
2017-08-04T09:10:18.693Z,36.23
2017-08-04T09:12:46.811Z,36.12
2017-08-04T09:15:14.520Z,36.60
2017-08-04T09:17:42.156Z,36.21
2017-08-04T09:20:09.830Z,36.53
2017-08-04T09:22:37.538Z,37.02
2017-08-04T09:25:05.228Z,37.07
2017-08-04T09:27:34.634Z,36.41
2017-08-04T09:30:02.384Z,35.91
2017-08-04T09:32:30.133Z,36.06
2017-08-04T09:34:57.793Z,35.91
2017-08-04T09:37:25.563Z,35.51
2017-08-04T09:39:53.269Z,35.97
2017-08-04T09:42:20.989Z,35.90
2017-08-04T09:44:48.759Z,35.64
2017-08-04T09:47:16.460Z,35.66
2017-08-04T09:49:44.087Z,35.46
2017-08-04T09:52:11.772Z,35.72
2017-08-04T09:54:39.808Z,35.57
2017-08-04T09:57:07.424Z,35.28
2017-08-04T09:59:39.531Z,35.62
2017-08-04T10:02:07.324Z,36.20
2017-08-04T10:04:34.966Z,36.66
2017-08-04T10:07:03.636Z,37.29
2017-08-04T10:09:31.371Z,36.77
2017-08-04T10:11:59.007Z,36.80
2017-08-04T10:14:26.755Z,36.79
2017-08-04T10:16:54.512Z,37.24
2017-08-04T10:19:22.173Z,37.46
2017-08-04T10:21:49.943Z,37.58
2017-08-04T10:24:17.701Z,37.18
2017-08-04T10:26:47.270Z,36.39
2017-08-04T10:29:14.997Z,36.40
2017-08-04T10:31:42.670Z,36.05
2017-08-04T10:34:10.363Z,35.93
2017-08-04T10:36:38.117Z,36.01
2017-08-04T10:39:06.203Z,36.44
2017-08-04T10:41:33.961Z,35.82
2017-08-04T10:44:01.604Z,35.70
2017-08-04T10:46:29.281Z,35.78
2017-08-04T10:48:57.984Z,35.91
2017-08-04T10:51:25.749Z,36.11
2017-08-04T10:53:53.481Z,35.74
2017-08-04T10:56:22.026Z,35.61
2017-08-04T10:58:49.935Z,35.52
2017-08-04T11:01:18.894Z,35.97
2017-08-04T11:03:46.569Z,35.82
2017-08-04T11:06:14.266Z,35.32
2017-08-04T11:08:42.027Z,35.56
2017-08-04T11:11:09.701Z,35.84
2017-08-04T11:13:37.330Z,36.07
2017-08-04T11:16:05.041Z,35.92
2017-08-04T11:18:32.711Z,35.97
2017-08-04T11:21:00.444Z,36.31
2017-08-04T11:23:28.148Z,36.48
2017-08-04T11:25:55.951Z,36.46
2017-08-04T11:28:23.566Z,36.64
2017-08-04T11:30:51.248Z,36.51
2017-08-04T11:33:18.886Z,36.53
2017-08-04T11:35:46.537Z,36.57
2017-08-04T11:38:14.283Z,36.85
2017-08-04T11:40:41.928Z,36.83
2017-08-04T11:43:09.569Z,36.16
2017-08-04T11:45:37.199Z,36.63
2017-08-04T11:48:04.893Z,36.91
2017-08-04T11:50:32.595Z,37.10
2017-08-04T11:53:00.216Z,37.52
2017-08-04T11:55:29.149Z,37.81
2017-08-04T11:57:56.864Z,37.72
2017-08-04T12:00:24.556Z,36.90
2017-08-04T12:02:52.224Z,36.46
2017-08-04T12:05:19.834Z,36.73
2017-08-04T12:07:47.572Z,37.11
2017-08-04T12:10:15.200Z,37.00
2017-08-04T12:12:42.892Z,37.10
2017-08-04T12:15:10.572Z,37.58
2017-08-04T12:17:38.230Z,37.73
2017-08-04T12:20:05.850Z,37.57
2017-08-04T12:22:33.491Z,37.57
2017-08-04T12:25:01.141Z,37.71
2017-08-04T12:27:28.786Z,37.63
2017-08-04T12:29:56.403Z,37.43
2017-08-04T12:32:24.123Z,37.14
2017-08-04T12:34:51.814Z,37.15
2017-08-04T12:37:19.464Z,36.68
2017-08-04T12:39:48.436Z,36.59
2017-08-04T12:42:16.158Z,36.85
2017-08-04T12:44:43.844Z,36.84
2017-08-04T12:47:12.288Z,37.19
2017-08-04T12:49:39.931Z,37.23
2017-08-04T12:52:07.669Z,37.35
2017-08-04T12:54:35.336Z,37.64
2017-08-04T12:57:02.987Z,37.72
2017-08-04T12:59:30.712Z,37.84
2017-08-04T13:01:58.465Z,37.90
2017-08-04T13:04:26.090Z,37.52
2017-08-04T13:06:53.742Z,37.56
2017-08-04T13:09:22.176Z,37.48
2017-08-04T13:11:50.028Z,37.67
2017-08-04T13:14:17.658Z,37.36
2017-08-04T13:16:45.366Z,37.48
2017-08-04T13:19:13.020Z,37.42
2017-08-04T13:21:40.721Z,37.34
2017-08-04T13:24:08.396Z,37.31
2017-08-04T13:26:36.058Z,37.32
2017-08-04T13:29:03.713Z,37.43
2017-08-04T13:31:32.348Z,37.45
2017-08-04T13:34:00.057Z,37.52
2017-08-04T13:36:27.718Z,37.26
2017-08-04T13:38:58.048Z,37.20
2017-08-04T13:41:25.699Z,37.07
2017-08-04T13:43:54.162Z,37.14
2017-08-04T13:46:21.970Z,37.15
2017-08-04T13:48:50.376Z,37.01
2017-08-04T13:51:18.368Z,37.07
2017-08-04T13:53:46.081Z,37.07
2017-08-04T13:56:13.745Z,36.99
2017-08-04T13:58:41.400Z,37.00
2017-08-04T14:01:09.096Z,36.55
2017-08-04T14:03:36.780Z,36.34
2017-08-04T14:06:12.115Z,36.26
2017-08-04T14:08:39.892Z,36.31
2017-08-04T14:11:07.504Z,36.02
2017-08-04T14:13:35.210Z,36.11
2017-08-04T14:16:02.832Z,36.04
2017-08-04T14:18:30.508Z,36.03
2017-08-04T14:20:58.533Z,36.11
2017-08-04T14:23:26.213Z,36.08
2017-08-04T14:25:54.519Z,35.96
2017-08-04T14:28:22.237Z,35.91
2017-08-04T14:30:50.863Z,36.01
2017-08-04T14:33:18.632Z,36.02
2017-08-04T14:35:46.263Z,35.99
2017-08-04T14:38:13.907Z,36.17
2017-08-04T14:40:41.544Z,36.15
2017-08-04T14:43:09.207Z,36.05
2017-08-04T14:45:36.843Z,35.94
2017-08-04T14:48:04.839Z,35.95
2017-08-04T14:50:32.687Z,35.70
2017-08-04T14:53:00.413Z,35.67
2017-08-04T14:55:28.092Z,35.75
2017-08-04T14:57:55.748Z,35.68
2017-08-04T15:00:23.479Z,35.51
2017-08-04T15:02:52.800Z,35.70
2017-08-04T15:05:20.491Z,35.65
2017-08-04T15:07:48.200Z,35.57
2017-08-04T15:10:15.856Z,35.64
2017-08-04T15:12:43.476Z,35.58
2017-08-04T15:15:11.145Z,35.66
2017-08-04T15:17:38.858Z,35.61
2017-08-04T15:20:07.223Z,35.55
2017-08-04T15:22:34.908Z,35.45
2017-08-04T15:25:02.589Z,35.48
2017-08-04T15:27:30.349Z,35.30
2017-08-04T15:29:58.108Z,35.46
2017-08-04T15:32:25.787Z,35.53
2017-08-04T15:34:53.460Z,35.52
2017-08-04T15:37:21.092Z,35.51
2017-08-04T15:39:48.812Z,35.40
2017-08-04T15:42:16.947Z,35.27
2017-08-04T15:44:44.595Z,35.23
2017-08-04T15:47:12.359Z,35.30
2017-08-04T15:49:40.044Z,35.29
2017-08-04T15:52:08.727Z,35.30
2017-08-04T15:54:36.420Z,35.23
2017-08-04T15:57:04.105Z,35.19
2017-08-04T15:59:31.729Z,35.13
2017-08-04T16:01:59.380Z,35.06
2017-08-04T16:04:27.017Z,35.02
2017-08-04T16:06:54.668Z,35.04
2017-08-04T16:09:22.371Z,34.98
2017-08-04T16:11:50.057Z,34.88
2017-08-04T16:14:17.706Z,34.82
2017-08-04T16:16:45.381Z,34.86
2017-08-04T16:19:12.994Z,34.80
2017-08-04T16:21:40.664Z,34.76
2017-08-04T16:24:08.404Z,34.74
2017-08-04T16:26:36.039Z,34.61
2017-08-04T16:29:03.769Z,34.68
2017-08-04T16:31:31.501Z,34.62
2017-08-04T16:33:59.456Z,34.53
2017-08-04T16:36:27.116Z,34.46
2017-08-04T16:38:54.756Z,34.35
2017-08-04T16:41:22.360Z,34.35
2017-08-04T16:43:49.988Z,34.28
2017-08-04T16:46:17.694Z,34.24
2017-08-04T16:48:45.349Z,34.17
2017-08-04T16:51:13.074Z,34.07
2017-08-04T16:53:40.811Z,34.00
2017-08-04T16:56:08.485Z,34.11
2017-08-04T16:58:36.174Z,34.20
2017-08-04T17:01:03.910Z,33.95
2017-08-04T17:03:32.173Z,33.81
2017-08-04T17:05:59.785Z,33.85
2017-08-04T17:08:27.439Z,33.69
2017-08-04T17:10:55.083Z,33.74
2017-08-04T17:13:22.690Z,33.73
2017-08-04T17:15:50.391Z,33.56
2017-08-04T17:18:18.192Z,33.48
2017-08-04T17:20:45.860Z,33.30
2017-08-04T17:23:13.541Z,33.29
2017-08-04T17:25:41.190Z,33.30
2017-08-04T17:28:08.824Z,33.17
2017-08-04T17:30:36.471Z,33.21
2017-08-04T17:33:04.084Z,33.31
2017-08-04T17:35:31.736Z,33.23
2017-08-04T17:37:59.464Z,33.06
2017-08-04T17:40:27.104Z,32.97
2017-08-04T17:42:54.697Z,32.98
2017-08-04T17:45:22.426Z,32.80
2017-08-04T17:47:50.066Z,32.64
2017-08-04T17:50:17.712Z,32.50
2017-08-04T17:52:45.392Z,32.41
2017-08-04T17:55:13.031Z,32.24
2017-08-04T17:57:40.679Z,32.05
2017-08-04T18:00:08.828Z,31.94
2017-08-04T18:02:47.982Z,31.83
2017-08-04T18:05:15.661Z,31.71
2017-08-04T18:07:43.329Z,31.77
2017-08-04T18:10:11.234Z,31.79
2017-08-04T18:12:38.946Z,31.80
2017-08-04T18:15:06.619Z,31.56
2017-08-04T18:17:34.323Z,31.67
2017-08-04T18:20:02.240Z,31.69
2017-08-04T18:22:29.904Z,31.68
2017-08-04T18:24:57.784Z,31.69
2017-08-04T18:27:25.565Z,31.67
2017-08-04T18:29:53.276Z,31.64
2017-08-04T18:32:20.937Z,31.58
2017-08-04T18:34:48.506Z,31.50
2017-08-04T18:37:16.174Z,31.30
2017-08-04T18:39:43.939Z,31.21
2017-08-04T18:42:11.572Z,31.27
2017-08-04T18:44:39.244Z,31.11
2017-08-04T18:47:06.943Z,31.07
2017-08-04T18:49:35.324Z,30.99
2017-08-04T18:52:02.964Z,30.71
2017-08-04T18:54:30.627Z,30.77
2017-08-04T18:56:58.335Z,30.68
2017-08-04T18:59:27.678Z,30.76
2017-08-04T19:01:55.500Z,30.78
2017-08-04T19:04:23.201Z,30.83
2017-08-04T19:06:50.883Z,30.90
2017-08-04T19:09:19.437Z,30.90
2017-08-04T19:11:47.170Z,30.89
2017-08-04T19:14:14.848Z,31.02
2017-08-04T19:16:42.464Z,30.87
2017-08-04T19:19:10.092Z,30.79
2017-08-04T19:21:37.700Z,30.76
2017-08-04T19:24:05.378Z,30.69
2017-08-04T19:26:32.985Z,30.51
2017-08-04T19:29:00.562Z,30.26
2017-08-04T19:31:28.263Z,30.19
2017-08-04T19:33:56.024Z,30.08
2017-08-04T19:36:24.054Z,29.94
2017-08-04T19:38:51.748Z,29.83
2017-08-04T19:41:19.359Z,29.82
2017-08-04T19:43:46.976Z,29.77
2017-08-04T19:46:14.648Z,29.63
2017-08-04T19:48:42.281Z,29.60
2017-08-04T19:51:09.974Z,29.52
2017-08-04T19:53:37.629Z,29.53
2017-08-04T19:56:05.292Z,29.48
2017-08-04T19:58:32.918Z,29.28
2017-08-04T20:01:00.642Z,29.27
2017-08-04T20:03:29.699Z,29.07
2017-08-04T20:05:57.358Z,28.80
2017-08-04T20:08:25.055Z,28.69
2017-08-04T20:10:52.669Z,28.56
2017-08-04T20:13:20.297Z,28.62
2017-08-04T20:15:47.923Z,28.65
2017-08-04T20:18:15.591Z,28.68
2017-08-04T20:20:43.259Z,28.63
2017-08-04T20:23:10.974Z,28.70
2017-08-04T20:25:38.650Z,28.63
2017-08-04T20:28:06.295Z,28.46
2017-08-04T20:30:34.457Z,28.27
2017-08-04T20:33:02.847Z,28.20
2017-08-04T20:35:30.560Z,28.16
2017-08-04T20:37:58.987Z,28.00
2017-08-04T20:40:26.637Z,28.02
2017-08-04T20:42:54.240Z,27.94
2017-08-04T20:45:21.876Z,27.84
2017-08-04T20:51:13.470Z,27.63
2017-08-04T20:53:45.683Z,27.55
2017-08-04T20:56:14.192Z,27.41
2017-08-04T20:58:42.175Z,27.29
2017-08-04T21:01:10.564Z,27.22
2017-08-04T21:03:40.665Z,27.23
2017-08-04T21:06:10.206Z,27.30
2017-08-04T21:08:40.131Z,27.33
2017-08-04T21:11:09.987Z,27.40
2017-08-04T21:13:39.376Z,27.29
2017-08-04T21:16:07.651Z,27.29
2017-08-04T21:18:37.093Z,27.29
2017-08-04T21:21:06.307Z,27.32
2017-08-04T21:23:35.242Z,27.25
2017-08-04T21:26:05.499Z,27.17
2017-08-04T21:28:34.330Z,27.07
2017-08-04T21:31:03.073Z,27.09
2017-08-04T21:33:31.585Z,26.98
2017-08-04T21:36:02.289Z,27.11
2017-08-04T21:38:31.688Z,27.16
2017-08-04T21:40:59.756Z,27.18
2017-08-04T21:43:29.047Z,27.00
2017-08-04T21:45:59.701Z,27.04
2017-08-04T21:48:27.845Z,27.00
2017-08-04T21:50:57.316Z,27.05
2017-08-04T21:53:26.248Z,26.90
2017-08-04T21:55:54.185Z,26.76
2017-08-04T21:58:22.114Z,26.83
2017-08-04T22:00:51.505Z,26.82
2017-08-04T22:03:19.506Z,26.83
2017-08-04T22:05:48.697Z,26.83
2017-08-04T22:08:17.564Z,26.81
2017-08-04T22:10:46.518Z,26.80
2017-08-04T22:13:14.278Z,26.82
2017-08-04T22:15:42.903Z,26.75
2017-08-04T22:18:10.981Z,26.77
2017-08-04T22:20:38.853Z,26.65
2017-08-04T22:23:06.835Z,26.61
2017-08-04T22:25:34.730Z,26.64
2017-08-04T22:28:03.296Z,26.61
2017-08-04T22:30:30.978Z,26.65
2017-08-04T22:33:00.073Z,26.66
2017-08-04T22:35:29.748Z,26.55
2017-08-04T22:37:58.474Z,26.54
2017-08-04T22:40:27.122Z,26.54
2017-08-04T22:42:54.888Z,26.59
2017-08-04T22:45:22.620Z,26.60
2017-08-04T22:47:50.228Z,26.70
2017-08-04T22:50:17.870Z,26.59
2017-08-04T22:52:45.549Z,26.43
2017-08-04T22:55:13.227Z,26.29
2017-08-04T23:04:22.825Z,26.30
2017-08-04T23:06:50.499Z,26.32
2017-08-04T23:09:18.241Z,26.35
2017-08-04T23:11:45.965Z,26.45
2017-08-04T23:14:13.639Z,26.32
2017-08-04T23:16:41.378Z,26.37
2017-08-04T23:19:09.036Z,26.35
2017-08-04T23:21:36.760Z,26.43
2017-08-04T23:24:04.497Z,26.44
2017-08-04T23:26:32.188Z,26.40
2017-08-04T23:28:59.845Z,26.36
2017-08-04T23:31:27.513Z,26.35
2017-08-04T23:33:55.139Z,26.27
2017-08-04T23:36:22.848Z,26.23
2017-08-04T23:38:50.572Z,26.12
2017-08-04T23:41:18.228Z,26.06
2017-08-04T23:43:45.847Z,25.98
2017-08-04T23:46:13.550Z,26.04
2017-08-04T23:48:41.232Z,25.81
2017-08-04T23:51:08.886Z,25.77
2017-08-04T23:53:36.567Z,25.71
2017-08-04T23:56:04.182Z,25.66
2017-08-04T23:58:31.822Z,25.62
